createdAt,value
2018-07-09T00:00:58.370Z,80.70
2018-07-09T00:03:27.239Z,80.20
2018-07-09T00:05:56.179Z,83.40
2018-07-09T00:08:25.003Z,83.40
2018-07-09T00:11:00.747Z,83.10
2018-07-09T00:15:59.846Z,83.10
2018-07-09T00:18:28.797Z,83.40
2018-07-09T00:20:57.701Z,83.80
2018-07-09T00:23:26.613Z,84.30
2018-07-09T00:25:56.246Z,84.20
2018-07-09T00:30:53.883Z,85.60
2018-07-09T00:33:23.137Z,86.10
2018-07-09T00:35:51.998Z,86.30
2018-07-09T00:38:21.442Z,86.40
2018-07-09T00:40:50.216Z,86.40
2018-07-09T00:43:18.976Z,86.80
2018-07-09T00:45:47.858Z,87.30
2018-07-09T00:48:16.824Z,88.20
2018-07-09T00:50:45.636Z,87.20
2018-07-09T00:53:14.569Z,87.80
2018-07-09T00:55:43.462Z,87.50
2018-07-09T00:58:12.362Z,88.30
2018-07-09T01:00:41.388Z,89.70
2018-07-09T01:03:10.272Z,89.00
2018-07-09T01:05:39.104Z,89.20
2018-07-09T01:08:08.026Z,90.00
2018-07-09T01:10:46.774Z,90.30
2018-07-09T01:13:15.738Z,90.30
2018-07-09T01:15:44.564Z,90.50
2018-07-09T01:18:13.352Z,90.50
2018-07-09T01:20:42.225Z,90.70
2018-07-09T01:23:10.977Z,90.90
2018-07-09T01:25:39.822Z,91.30
2018-07-09T01:28:08.641Z,91.10
2018-07-09T01:30:37.489Z,91.40
2018-07-09T01:33:06.295Z,91.50
2018-07-09T01:35:35.104Z,91.60
2018-07-09T01:38:04.090Z,91.70
2018-07-09T01:40:32.888Z,91.90
2018-07-09T01:43:01.643Z,92.00
2018-07-09T01:45:30.450Z,92.50
2018-07-09T01:47:59.349Z,92.30
2018-07-09T01:50:28.239Z,92.30
2018-07-09T01:52:57.056Z,92.60
2018-07-09T01:55:25.947Z,92.40
2018-07-09T01:57:54.793Z,92.50
2018-07-09T02:00:23.616Z,92.80
2018-07-09T02:02:52.536Z,93.20
2018-07-09T02:05:21.409Z,93.30
2018-07-09T02:07:50.216Z,93.10
2018-07-09T02:10:18.961Z,93.10
2018-07-09T02:12:47.823Z,93.20
2018-07-09T02:15:16.698Z,93.50
2018-07-09T02:17:45.525Z,93.50
2018-07-09T02:20:14.469Z,93.60
2018-07-09T02:22:43.363Z,93.60
2018-07-09T02:25:12.141Z,94.30
2018-07-09T02:27:41.014Z,94.20
2018-07-09T02:30:09.965Z,94.20
2018-07-09T02:32:38.883Z,94.50
2018-07-09T02:35:07.723Z,94.80
2018-07-09T02:37:36.629Z,95.10
2018-07-09T02:40:05.637Z,94.90
2018-07-09T02:42:34.424Z,95.20
2018-07-09T02:45:03.496Z,95.20
2018-07-09T02:47:32.457Z,95.30
2018-07-09T02:50:01.676Z,95.10
2018-07-09T02:52:30.527Z,95.30
2018-07-09T02:54:59.353Z,95.60
2018-07-09T02:57:28.229Z,95.60
2018-07-09T02:59:57.124Z,95.60
2018-07-09T03:02:25.978Z,95.90
2018-07-09T03:04:54.849Z,96.10
2018-07-09T03:07:23.752Z,96.30
2018-07-09T03:09:52.596Z,96.10
2018-07-09T03:12:21.590Z,96.00
2018-07-09T03:14:50.564Z,95.90
2018-07-09T03:17:19.399Z,95.80
2018-07-09T03:19:48.270Z,95.80
2018-07-09T03:22:16.999Z,96.00
2018-07-09T03:24:45.900Z,96.30
2018-07-09T03:27:14.634Z,96.10
2018-07-09T03:29:43.449Z,96.00
2018-07-09T03:32:12.302Z,95.80
2018-07-09T03:34:41.169Z,95.80
2018-07-09T03:37:09.896Z,95.60
2018-07-09T03:39:38.747Z,95.60
2018-07-09T03:44:36.139Z,95.80
2018-07-09T03:47:05.376Z,95.50
2018-07-09T03:49:34.428Z,95.60
2018-07-09T03:52:03.340Z,95.30
2018-07-09T03:54:32.267Z,95.40
2018-07-09T03:57:01.078Z,95.50
2018-07-09T03:59:29.944Z,95.70
2018-07-09T04:01:58.905Z,95.30
2018-07-09T04:04:27.958Z,95.40
2018-07-09T04:06:57.165Z,95.40
2018-07-09T04:09:26.419Z,95.40
2018-07-09T04:12:01.494Z,95.50
2018-07-09T04:14:30.481Z,95.30
2018-07-09T04:16:59.255Z,95.10
2018-07-09T04:19:28.064Z,94.80
2018-07-09T04:21:56.875Z,94.80
2018-07-09T04:24:25.639Z,94.10
2018-07-09T04:26:54.971Z,93.60
2018-07-09T04:29:23.780Z,93.30
2018-07-09T04:31:52.709Z,93.10
2018-07-09T04:36:50.004Z,91.70
2018-07-09T04:39:18.756Z,91.40
2018-07-09T04:41:47.580Z,91.10
2018-07-09T04:44:16.447Z,90.80
2018-07-09T04:46:45.368Z,90.40
2018-07-09T04:49:14.200Z,90.70
2018-07-09T04:51:43.044Z,87.20
2018-07-09T04:54:12.065Z,82.80
2018-07-09T04:56:40.930Z,78.40
2018-07-09T04:59:09.680Z,74.80
2018-07-09T05:01:38.431Z,73.80
2018-07-09T05:04:07.341Z,71.30
2018-07-09T05:06:36.048Z,70.20
2018-07-09T05:09:05.786Z,68.60
2018-07-09T05:11:34.656Z,67.50
2018-07-09T05:14:03.720Z,65.60
2018-07-09T05:16:32.488Z,61.10
2018-07-09T05:19:01.352Z,59.50
2018-07-09T05:21:30.184Z,58.20
2018-07-09T05:23:59.140Z,55.80
2018-07-09T05:26:27.913Z,54.50
2018-07-09T05:28:57.712Z,52.50
2018-07-09T05:31:26.484Z,52.20
2018-07-09T05:33:55.470Z,51.60
2018-07-09T05:36:24.412Z,50.00
2018-07-09T05:38:53.702Z,49.20
2018-07-09T05:41:22.642Z,48.40
2018-07-09T05:43:51.706Z,49.40
2018-07-09T05:46:20.524Z,50.40
2018-07-09T05:48:49.564Z,47.70
2018-07-09T05:51:18.376Z,47.30
2018-07-09T05:53:47.286Z,47.00
2018-07-09T05:56:16.382Z,46.20
2018-07-09T05:58:45.390Z,45.00
2018-07-09T06:01:14.220Z,44.50
2018-07-09T06:03:42.992Z,45.50
2018-07-09T06:06:11.798Z,44.40
2018-07-09T06:08:40.590Z,44.90
2018-07-09T06:11:10.703Z,46.80
2018-07-09T06:13:39.665Z,48.40
2018-07-09T06:16:08.640Z,50.30
2018-07-09T06:18:37.467Z,51.70
2018-07-09T06:21:06.506Z,53.10
2018-07-09T06:23:35.440Z,54.20
2018-07-09T06:26:04.170Z,54.30
2018-07-09T06:31:01.324Z,48.50
2018-07-09T06:33:30.249Z,47.80
2018-07-09T06:35:59.342Z,44.20
2018-07-09T06:38:28.172Z,42.40
2018-07-09T06:40:57.007Z,39.80
2018-07-09T06:43:25.905Z,40.00
2018-07-09T06:45:54.709Z,40.50
2018-07-09T06:48:23.668Z,40.10
2018-07-09T06:50:52.693Z,40.80
2018-07-09T06:53:21.506Z,38.90
2018-07-09T06:55:50.398Z,38.90
2018-07-09T06:58:19.176Z,41.10
2018-07-09T07:00:47.975Z,44.20
2018-07-09T07:03:16.892Z,48.10
2018-07-09T07:05:45.736Z,52.00
2018-07-09T07:08:14.666Z,54.90
2018-07-09T07:10:43.567Z,57.90
2018-07-09T07:13:12.516Z,58.20
2018-07-09T07:15:41.350Z,59.10
2018-07-09T07:18:10.250Z,59.30
2018-07-09T07:20:39.127Z,61.10
2018-07-09T07:23:07.956Z,60.70
2018-07-09T07:25:36.718Z,60.60
2018-07-09T07:28:05.617Z,60.70
2018-07-09T07:30:34.440Z,62.40
2018-07-09T07:33:03.345Z,63.60
2018-07-09T07:35:32.614Z,65.10
2018-07-09T07:38:01.497Z,64.80
2018-07-09T07:40:30.326Z,66.30
2018-07-09T07:42:59.205Z,65.80
2018-07-09T07:45:28.056Z,65.90
2018-07-09T07:47:56.747Z,65.70
2018-07-09T07:50:25.932Z,65.20
2018-07-09T07:52:54.744Z,65.10
2018-07-09T07:55:23.780Z,65.10
2018-07-09T07:57:52.782Z,65.40
2018-07-09T08:00:21.708Z,66.30
2018-07-09T08:02:50.573Z,64.90
2018-07-09T08:05:19.584Z,64.10
2018-07-09T08:07:48.384Z,64.20
2018-07-09T08:10:17.312Z,62.60
2018-07-09T08:13:27.173Z,63.00
2018-07-09T08:15:15.108Z,63.00
2018-07-09T08:17:44.032Z,63.20
2018-07-09T08:20:12.880Z,62.40
2018-07-09T08:22:41.781Z,62.20
2018-07-09T08:25:10.770Z,59.60
2018-07-09T08:27:39.468Z,60.70
2018-07-09T08:30:08.312Z,62.10
2018-07-09T08:32:37.112Z,59.30
2018-07-09T08:35:05.958Z,60.30
2018-07-09T08:37:34.772Z,60.20
2018-07-09T08:40:03.695Z,59.20
2018-07-09T08:42:32.733Z,59.00
2018-07-09T08:45:01.550Z,59.50
2018-07-09T08:47:30.279Z,58.40
2018-07-09T08:49:59.180Z,59.60
2018-07-09T08:52:27.978Z,58.60
2018-07-09T08:54:56.914Z,62.60
2018-07-09T08:57:25.764Z,57.60
2018-07-09T08:59:54.462Z,56.60
2018-07-09T09:02:23.248Z,57.10
2018-07-09T09:04:52.104Z,56.80
2018-07-09T09:07:20.930Z,56.00
2018-07-09T09:09:49.868Z,56.60
2018-07-09T09:12:18.834Z,57.30
2018-07-09T09:14:47.922Z,58.00
2018-07-09T09:17:16.775Z,53.80
2018-07-09T09:19:45.536Z,52.80
2018-07-09T09:22:14.365Z,54.20
2018-07-09T09:24:43.168Z,52.90
2018-07-09T09:27:12.001Z,53.90
2018-07-09T09:29:40.844Z,54.30
2018-07-09T09:32:09.651Z,53.90
2018-07-09T09:34:38.384Z,55.40
2018-07-09T09:37:07.622Z,55.20
2018-07-09T09:39:37.190Z,53.70
2018-07-09T09:42:06.528Z,54.60
2018-07-09T09:44:35.718Z,55.90
2018-07-09T09:47:04.759Z,56.10
2018-07-09T09:49:33.634Z,56.00
2018-07-09T09:52:02.613Z,54.50
2018-07-09T09:54:31.506Z,54.00
2018-07-09T09:57:00.560Z,55.60
2018-07-09T09:59:29.486Z,54.00
2018-07-09T10:01:58.270Z,52.90
2018-07-09T10:04:27.133Z,55.90
2018-07-09T10:06:55.988Z,55.50
2018-07-09T10:09:24.833Z,54.30
2018-07-09T10:11:54.080Z,54.50
2018-07-09T10:14:22.860Z,56.70
2018-07-09T10:16:51.784Z,56.60
2018-07-09T10:19:20.563Z,54.00
2018-07-09T10:21:49.398Z,55.30
2018-07-09T10:24:18.316Z,55.20
2018-07-09T10:26:47.204Z,53.60
2018-07-09T10:29:16.026Z,53.40
2018-07-09T10:31:44.872Z,54.30
2018-07-09T10:34:13.660Z,52.80
2018-07-09T10:36:42.511Z,50.50
2018-07-09T10:39:11.451Z,50.90
2018-07-09T10:41:40.246Z,51.00
2018-07-09T10:44:09.024Z,49.60
2018-07-09T10:46:37.856Z,50.40
2018-07-09T10:49:06.758Z,49.20
2018-07-09T10:51:35.673Z,49.30
2018-07-09T10:56:32.863Z,48.50
2018-07-09T10:59:01.815Z,49.00
2018-07-09T11:01:31.148Z,49.10
2018-07-09T11:06:28.515Z,48.20
2018-07-09T11:08:57.637Z,47.40
2018-07-09T11:11:26.475Z,48.10
2018-07-09T11:13:55.358Z,48.40
2018-07-09T11:16:24.206Z,49.10
2018-07-09T11:18:52.834Z,48.80
2018-07-09T11:21:21.707Z,48.80
2018-07-09T11:23:50.491Z,48.60
2018-07-09T11:26:19.480Z,48.70
2018-07-09T11:28:48.510Z,47.60
2018-07-09T11:31:17.352Z,48.40
2018-07-09T11:33:46.155Z,47.50
2018-07-09T11:36:15.019Z,45.50
2018-07-09T11:38:43.785Z,46.80
2018-07-09T11:41:12.678Z,44.20
2018-07-09T11:46:10.085Z,43.00
2018-07-09T11:48:38.953Z,41.90
2018-07-09T11:51:07.816Z,41.60
2018-07-09T11:53:36.773Z,40.40
2018-07-09T11:56:05.713Z,41.90
2018-07-09T11:58:34.600Z,41.60
2018-07-09T12:01:03.386Z,43.50
2018-07-09T12:03:32.226Z,44.00
2018-07-09T12:06:01.535Z,44.60
2018-07-09T12:08:30.910Z,44.60
2018-07-09T12:10:59.781Z,43.50
2018-07-09T12:13:28.567Z,44.90
2018-07-09T12:15:57.571Z,42.90
2018-07-09T12:18:26.589Z,42.70
2018-07-09T12:20:55.379Z,41.70
2018-07-09T12:23:24.211Z,40.80
2018-07-09T12:25:53.080Z,42.20
2018-07-09T12:28:21.947Z,40.30
2018-07-09T12:30:50.819Z,40.10
2018-07-09T12:35:48.221Z,43.00
2018-07-09T12:38:17.141Z,43.50
2018-07-09T12:40:46.047Z,42.40
2018-07-09T12:43:14.677Z,43.20
2018-07-09T12:45:43.689Z,44.60
2018-07-09T12:48:12.535Z,44.70
2018-07-09T12:50:41.527Z,45.30
2018-07-09T12:53:10.413Z,42.00
2018-07-09T12:55:39.494Z,40.10
2018-07-09T12:58:08.316Z,41.20
2018-07-09T13:00:37.238Z,39.30
2018-07-09T13:03:06.072Z,39.20
2018-07-09T13:05:35.481Z,36.40
2018-07-09T13:08:04.305Z,37.40
2018-07-09T13:10:33.213Z,38.50
2018-07-09T13:13:02.071Z,39.00
2018-07-09T13:15:30.855Z,37.20
2018-07-09T13:20:28.218Z,38.70
2018-07-09T13:22:57.241Z,37.80
2018-07-09T13:25:26.438Z,37.90
2018-07-09T13:27:55.611Z,38.40
2018-07-09T13:30:24.877Z,38.60
2018-07-09T13:32:53.685Z,37.10
2018-07-09T13:35:22.707Z,36.90
2018-07-09T13:37:51.569Z,35.00
2018-07-09T13:40:20.387Z,37.80
2018-07-09T13:42:49.285Z,38.30
2018-07-09T13:45:18.158Z,39.00
2018-07-09T13:47:46.823Z,38.30
2018-07-09T13:50:15.606Z,38.60
2018-07-09T13:52:44.413Z,40.50
2018-07-09T13:55:13.374Z,42.00
2018-07-09T13:57:42.223Z,43.70
2018-07-09T14:00:11.447Z,45.00
2018-07-09T14:02:40.303Z,45.80
2018-07-09T14:05:08.692Z,45.30
2018-07-09T14:07:37.591Z,45.10
2018-07-09T14:10:06.504Z,44.70
2018-07-09T14:12:35.326Z,44.90
2018-07-09T14:15:04.247Z,44.70
2018-07-09T14:17:32.979Z,44.70
2018-07-09T14:20:25.937Z,44.50
2018-07-09T14:22:54.796Z,45.40
2018-07-09T14:25:23.613Z,43.00
2018-07-09T14:27:52.555Z,42.10
2018-07-09T14:30:21.599Z,40.10
2018-07-09T14:32:50.437Z,40.30
2018-07-09T14:35:19.117Z,39.80
2018-07-09T14:40:16.303Z,40.30
2018-07-09T14:42:45.049Z,40.40
2018-07-09T14:45:13.912Z,38.40
2018-07-09T14:47:42.796Z,38.40
2018-07-09T14:50:11.649Z,37.00
2018-07-09T14:52:40.450Z,37.20
2018-07-09T14:55:09.254Z,37.20
2018-07-09T14:57:38.235Z,37.10
2018-07-09T15:00:07.897Z,37.80
2018-07-09T15:02:37.082Z,37.70
2018-07-09T15:05:21.221Z,38.40
2018-07-09T15:07:50.349Z,37.70
2018-07-09T15:10:39.447Z,37.00
2018-07-09T15:13:12.061Z,37.30
2018-07-09T15:15:40.842Z,35.00
2018-07-09T15:18:09.929Z,35.60
2018-07-09T15:20:38.815Z,36.40
2018-07-09T15:23:07.981Z,37.50
2018-07-09T15:25:36.805Z,39.80
2018-07-09T15:28:05.948Z,40.40
2018-07-09T15:30:34.719Z,39.20
2018-07-09T15:33:03.511Z,38.30
2018-07-09T15:35:32.305Z,38.80
2018-07-09T15:38:01.641Z,38.70
2018-07-09T15:40:30.475Z,38.30
2018-07-09T15:42:59.378Z,38.70
2018-07-09T15:45:28.145Z,40.00
2018-07-09T15:47:57.444Z,40.30
2018-07-09T15:50:26.363Z,40.40
2018-07-09T15:52:55.273Z,41.70
2018-07-09T15:55:24.153Z,41.30
2018-07-09T15:57:53.045Z,40.60
2018-07-09T16:00:21.965Z,41.00
2018-07-09T16:02:50.802Z,40.80
2018-07-09T16:05:19.875Z,41.40
2018-07-09T16:07:48.773Z,41.50
2018-07-09T16:10:17.603Z,42.00
2018-07-09T16:15:14.886Z,41.80
2018-07-09T16:17:43.881Z,42.10
2018-07-09T16:20:12.743Z,41.90
2018-07-09T16:22:42.183Z,40.90
2018-07-09T16:25:12.038Z,41.80
2018-07-09T16:27:40.943Z,41.50
2018-07-09T16:30:13.381Z,41.70
2018-07-09T16:32:42.263Z,41.90
2018-07-09T16:35:11.057Z,41.20
2018-07-09T16:37:40.136Z,41.50
2018-07-09T16:40:08.986Z,41.30
2018-07-09T16:42:37.888Z,41.00
2018-07-09T16:45:06.727Z,41.10
2018-07-09T16:47:35.726Z,40.60
2018-07-09T16:50:04.806Z,40.50
2018-07-09T16:52:33.613Z,40.40
2018-07-09T16:55:02.578Z,40.90
2018-07-09T16:57:31.466Z,40.40
2018-07-09T17:04:57.806Z,40.30
2018-07-09T17:07:27.150Z,41.00
2018-07-09T17:09:55.991Z,40.60
2018-07-09T17:12:24.931Z,40.60
2018-07-09T17:14:53.723Z,40.10
2018-07-09T17:17:22.935Z,40.50
2018-07-09T17:19:51.785Z,40.20
2018-07-09T17:22:20.810Z,40.10
2018-07-09T17:24:49.559Z,41.20
2018-07-09T17:27:24.367Z,40.20
2018-07-09T17:29:53.224Z,39.70
2018-07-09T17:32:22.341Z,39.70
2018-07-09T17:34:51.102Z,38.60
2018-07-09T17:37:20.012Z,39.20
2018-07-09T17:39:48.937Z,39.60
2018-07-09T17:44:54.272Z,41.20
2018-07-09T17:47:25.296Z,41.90
2018-07-09T17:49:54.088Z,42.90
2018-07-09T17:52:42.735Z,42.70
2018-07-09T17:55:11.550Z,43.50
2018-07-09T17:57:40.368Z,44.90
2018-07-09T18:00:09.646Z,44.60
2018-07-09T18:02:41.957Z,44.80
2018-07-09T18:07:39.365Z,45.60
2018-07-09T18:10:08.196Z,45.90
2018-07-09T18:12:37.150Z,46.00
2018-07-09T18:15:06.442Z,46.00
2018-07-09T18:17:35.232Z,45.40
2018-07-09T18:20:07.791Z,45.60
2018-07-09T18:22:36.669Z,46.40
2018-07-09T18:25:06.171Z,47.00
2018-07-09T18:27:35.197Z,47.40
2018-07-09T18:30:04.236Z,47.60
2018-07-09T18:32:33.249Z,47.60
2018-07-09T18:35:02.388Z,47.20
2018-07-09T18:37:32.703Z,47.40
2018-07-09T18:40:01.786Z,47.90
2018-07-09T18:42:34.124Z,48.40
2018-07-09T18:45:02.956Z,48.10
2018-07-09T18:47:31.716Z,48.00
2018-07-09T18:50:00.526Z,52.00
2018-07-09T18:52:30.062Z,51.70
2018-07-09T18:54:58.967Z,59.10
2018-07-09T18:57:27.879Z,49.30
2018-07-09T18:59:56.758Z,48.60
2018-07-09T19:04:54.210Z,44.80
2018-07-09T19:07:23.088Z,44.10
2018-07-09T19:09:53.476Z,44.30
2018-07-09T19:12:22.671Z,42.60
2018-07-09T19:14:52.781Z,41.40
2018-07-09T19:18:02.365Z,40.80
2018-07-09T19:20:42.440Z,41.00
2018-07-09T19:23:10.793Z,40.80
2018-07-09T19:25:38.817Z,40.70
2018-07-09T19:28:07.610Z,40.60
2018-07-09T19:30:35.062Z,40.20
2018-07-09T19:33:02.619Z,40.10
2018-07-09T19:35:30.161Z,41.10
2018-07-09T19:37:57.912Z,40.60
2018-07-09T19:40:25.236Z,40.20
2018-07-09T19:42:52.949Z,40.20
2018-07-09T19:45:35.567Z,39.90
2018-07-09T19:48:03.406Z,40.50
2018-07-09T19:50:31.052Z,40.60
2018-07-09T19:52:58.634Z,41.00
2018-07-09T19:55:26.121Z,40.80
2018-07-09T19:57:53.673Z,40.60
2018-07-09T20:00:21.378Z,40.50
2018-07-09T20:02:48.936Z,40.60
2018-07-09T20:05:16.633Z,40.50
2018-07-09T20:07:44.224Z,41.10
2018-07-09T20:11:14.446Z,41.30
2018-07-09T20:13:51.045Z,41.30
2018-07-09T20:16:23.942Z,41.60
2018-07-09T20:18:53.537Z,41.50
2018-07-09T20:21:21.842Z,40.80
2018-07-09T20:23:49.555Z,41.60
2018-07-09T20:28:45.141Z,41.00
2018-07-09T20:31:12.702Z,41.70
2018-07-09T20:33:40.179Z,42.10
2018-07-09T20:36:07.806Z,42.10
2018-07-09T20:38:35.371Z,41.90
2018-07-09T20:41:03.559Z,42.10
2018-07-09T20:43:31.070Z,42.40
2018-07-09T20:45:58.593Z,43.10
2018-07-09T20:48:26.127Z,43.40
2018-07-09T20:50:53.608Z,43.30
2018-07-09T20:53:21.115Z,43.40
2018-07-09T20:55:48.607Z,44.20
2018-07-09T20:58:16.159Z,44.30
2018-07-09T21:00:43.822Z,44.90
2018-07-09T21:03:11.358Z,45.50
2018-07-09T21:05:39.000Z,46.40
2018-07-09T21:08:06.720Z,46.70
2018-07-09T21:10:34.270Z,47.80
2018-07-09T21:13:01.811Z,48.10
2018-07-09T21:15:29.416Z,49.00
2018-07-09T21:20:24.560Z,50.30
2018-07-09T21:22:52.100Z,50.00
2018-07-09T21:25:19.602Z,50.60
2018-07-09T21:27:47.115Z,51.00
2018-07-09T21:30:14.627Z,51.90
2018-07-09T21:32:42.152Z,51.90
2018-07-09T21:35:09.701Z,52.30
2018-07-09T21:37:37.320Z,52.80
2018-07-09T21:40:04.828Z,52.90
2018-07-09T21:42:32.351Z,53.10
2018-07-09T21:44:59.788Z,53.30
2018-07-09T21:47:27.348Z,53.90
2018-07-09T21:49:54.944Z,54.30
2018-07-09T21:52:22.430Z,54.80
2018-07-09T21:54:50.029Z,54.60
2018-07-09T21:57:17.560Z,54.80
2018-07-09T21:59:45.056Z,55.10
2018-07-09T22:02:12.560Z,55.20
2018-07-09T22:04:40.081Z,55.50
2018-07-09T22:07:07.568Z,55.70
2018-07-09T22:09:35.112Z,56.20
2018-07-09T22:12:02.618Z,56.10
2018-07-09T22:14:30.150Z,56.20
2018-07-09T22:16:57.619Z,56.50
2018-07-09T22:19:25.155Z,57.30
2018-07-09T22:21:52.638Z,56.70
2018-07-09T22:24:20.136Z,57.00
2018-07-09T22:26:47.643Z,57.20
2018-07-09T22:29:15.219Z,57.80
2018-07-09T22:31:44.073Z,58.10
2018-07-09T22:34:12.872Z,58.30
2018-07-09T22:36:41.676Z,58.50
2018-07-09T22:39:10.503Z,58.60
2018-07-09T22:41:39.368Z,58.80
2018-07-09T22:44:17.644Z,58.80
2018-07-09T22:46:46.978Z,58.90
2018-07-09T22:49:15.726Z,59.10
2018-07-09T22:51:44.904Z,59.00
2018-07-09T22:54:13.666Z,59.60
2018-07-09T22:56:42.630Z,60.10
2018-07-09T22:59:11.512Z,60.30
2018-07-09T23:01:40.398Z,63.00
2018-07-09T23:04:09.305Z,61.70
2018-07-09T23:06:38.496Z,62.70
2018-07-09T23:10:22.848Z,62.90
2018-07-09T23:13:30.753Z,63.70
2018-07-09T23:16:36.653Z,63.70
2018-07-09T23:19:22.885Z,64.00
2018-07-09T23:22:02.721Z,64.20
2018-07-09T23:24:30.185Z,65.00
2018-07-09T23:26:58.005Z,65.60
2018-07-09T23:29:25.509Z,65.40
2018-07-09T23:31:53.001Z,65.30
2018-07-09T23:34:20.723Z,66.50
2018-07-09T23:36:48.235Z,65.90
2018-07-09T23:41:43.449Z,67.90
2018-07-09T23:44:10.937Z,68.50
2018-07-09T23:46:38.408Z,68.90
2018-07-09T23:49:05.875Z,69.10
2018-07-09T23:51:33.360Z,68.70
2018-07-09T23:54:00.944Z,68.50
2018-07-09T23:59:40.522Z,68.90
